createdAt,value
2023-01-13T00:01:09.879Z,2.95
2023-01-13T00:03:36.966Z,1.65
2023-01-13T00:06:04.601Z,2.55
2023-01-13T00:08:31.434Z,4.25
2023-01-13T00:10:57.845Z,2.08
2023-01-13T00:13:27.464Z,0.95
2023-01-13T00:16:04.165Z,0.40
2023-01-13T00:18:30.829Z,2.72
2023-01-13T00:21:05.581Z,2.30
2023-01-13T00:23:34.387Z,1.00
2023-01-13T00:26:03.410Z,1.85
2023-01-13T00:28:29.901Z,1.33
2023-01-13T00:30:58.338Z,1.20
2023-01-13T00:33:25.582Z,1.85
2023-01-13T00:35:56.864Z,0.80
2023-01-13T00:38:23.313Z,0.60
2023-01-13T00:41:09.548Z,2.45
2023-01-13T00:43:37.219Z,2.05
2023-01-13T00:46:08.238Z,1.45
2023-01-13T00:48:35.399Z,0.50
2023-01-13T00:51:11.384Z,0.93
2023-01-13T00:53:42.953Z,1.55
2023-01-13T00:56:15.068Z,3.17
2023-01-13T00:58:42.869Z,3.08
2023-01-13T01:01:12.727Z,2.45
2023-01-13T01:03:40.147Z,2.45
2023-01-13T01:06:07.856Z,2.40
2023-01-13T01:08:35.713Z,1.13
2023-01-13T01:11:07.637Z,3.63
2023-01-13T01:13:34.058Z,1.10
2023-01-13T01:16:06.705Z,0.30
2023-01-13T01:18:38.437Z,0.63
2023-01-13T01:21:06.131Z,0.50
2023-01-13T01:23:33.726Z,2.60
2023-01-13T01:26:06.423Z,1.95
2023-01-13T01:28:34.495Z,1.65
2023-01-13T01:31:06.422Z,0.47
2023-01-13T01:33:32.889Z,0.68
2023-01-13T01:36:03.751Z,3.75
2023-01-13T01:38:30.778Z,1.40
2023-01-13T01:40:57.209Z,0.38
2023-01-13T01:44:02.337Z,1.45
2023-01-13T01:46:33.253Z,0.30
2023-01-13T01:49:12.622Z,0.38
2023-01-13T01:51:46.764Z,1.05
2023-01-13T01:54:18.924Z,1.60
2023-01-13T01:56:46.516Z,0.57
2023-01-13T01:59:14.012Z,0.55
2023-01-13T02:01:42.060Z,1.70
2023-01-13T02:04:16.648Z,0.60
2023-01-13T02:06:44.283Z,0.60
2023-01-13T02:09:11.158Z,0.85
2023-01-13T02:11:56.353Z,1.42
2023-01-13T02:14:26.750Z,0.63
2023-01-13T02:17:01.360Z,1.40
2023-01-13T02:20:04.622Z,0.40
2023-01-13T02:22:46.594Z,1.88
2023-01-13T02:25:43.607Z,1.70
2023-01-13T02:29:06.789Z,1.35
2023-01-13T02:31:42.904Z,1.02
2023-01-13T02:34:33.895Z,0.60
2023-01-13T02:37:07.382Z,0.63
2023-01-13T02:39:45.413Z,0.40
2023-01-13T02:42:37.225Z,0.30
2023-01-13T02:45:10.625Z,0.45
2023-01-13T02:47:40.264Z,0.60
2023-01-13T02:50:17.740Z,0.30
2023-01-13T02:52:58.691Z,0.30
2023-01-13T02:55:37.464Z,0.40
2023-01-13T02:58:07.937Z,1.38
2023-01-13T03:00:36.796Z,0.85
2023-01-13T03:03:03.554Z,0.25
2023-01-13T03:05:33.041Z,1.33
2023-01-13T03:08:15.640Z,0.20
2023-01-13T03:11:09.034Z,1.08
2023-01-13T03:13:59.667Z,0.63
2023-01-13T03:16:32.233Z,0.55
2023-01-13T03:19:17.290Z,0.88
2023-01-13T03:21:59.229Z,0.17
2023-01-13T03:24:31.749Z,0.63
2023-01-13T03:27:04.349Z,0.60
2023-01-13T03:29:36.886Z,0.38
2023-01-13T03:32:16.158Z,1.52
2023-01-13T03:34:51.590Z,0.40
2023-01-13T03:37:21.248Z,1.63
2023-01-13T03:39:52.787Z,0.90
2023-01-13T03:42:26.068Z,1.30
2023-01-13T03:45:15.429Z,0.10
2023-01-13T03:47:47.977Z,0.47
2023-01-13T03:50:17.435Z,0.10
2023-01-13T03:52:47.405Z,0.57
2023-01-13T03:55:20.656Z,0.38
2023-01-13T03:58:14.176Z,0.15
2023-01-13T04:03:14.034Z,0.65
2023-01-13T04:05:43.923Z,0.20
2023-01-13T04:08:26.090Z,0.43
2023-01-13T04:10:58.323Z,1.80
2023-01-13T04:13:28.668Z,0.50
2023-01-13T04:15:55.275Z,0.10
2023-01-13T04:18:33.002Z,1.17
2023-01-13T04:21:02.058Z,1.58
2023-01-13T04:23:29.509Z,1.45
2023-01-13T04:25:57.020Z,0.80
2023-01-13T04:28:24.351Z,0.43
2023-01-13T04:30:50.924Z,0.82
2023-01-13T04:33:19.089Z,0.85
2023-01-13T04:35:46.824Z,0.88
2023-01-13T04:38:16.122Z,0.57
2023-01-13T04:40:42.975Z,0.50
2023-01-13T04:43:09.533Z,0.30
2023-01-13T04:45:36.153Z,1.30
2023-01-13T04:48:02.663Z,0.45
2023-01-13T04:50:29.058Z,0.85
2023-01-13T04:52:55.846Z,1.33
2023-01-13T04:55:24.049Z,0.70
2023-01-13T04:57:50.544Z,0.28
2023-01-13T05:00:20.382Z,0.85
2023-01-13T05:02:49.375Z,0.75
2023-01-13T05:05:16.470Z,0.75
2023-01-13T05:07:44.015Z,0.90
2023-01-13T05:10:12.063Z,1.48
2023-01-13T05:12:57.279Z,0.05
2023-01-13T05:15:42.305Z,0.43
2023-01-13T05:18:08.907Z,0.13
2023-01-13T05:20:35.270Z,0.40
2023-01-13T05:23:20.361Z,1.60
2023-01-13T05:25:48.020Z,2.13
2023-01-13T05:28:15.019Z,3.92
2023-01-13T05:30:46.353Z,1.52
2023-01-13T05:33:15.099Z,2.80
2023-01-13T05:35:43.198Z,2.70
2023-01-13T05:38:10.459Z,2.75
2023-01-13T05:40:59.399Z,0.35
2023-01-13T05:43:26.762Z,0.93
2023-01-13T05:45:56.303Z,1.80
2023-01-13T05:48:25.024Z,1.25
2023-01-13T05:50:51.426Z,2.13
2023-01-13T05:53:18.552Z,0.65
2023-01-13T05:55:45.855Z,0.73
2023-01-13T05:58:14.859Z,2.90
2023-01-13T06:00:42.103Z,0.60
2023-01-13T06:03:09.270Z,2.17
2023-01-13T06:05:35.940Z,1.00
2023-01-13T06:08:05.060Z,1.10
2023-01-13T06:10:31.539Z,0.80
2023-01-13T06:12:58.196Z,5.15
2023-01-13T06:15:25.400Z,1.30
2023-01-13T06:17:52.125Z,2.67
2023-01-13T06:20:19.368Z,2.78
2023-01-13T06:22:49.099Z,1.52
2023-01-13T06:25:39.952Z,0.90
2023-01-13T06:28:06.570Z,2.45
2023-01-13T06:30:42.682Z,0.40
2023-01-13T06:33:13.467Z,1.77
2023-01-13T06:35:43.421Z,1.52
2023-01-13T06:38:13.262Z,0.40
2023-01-13T06:40:42.309Z,0.20
2023-01-13T06:43:16.354Z,0.20
2023-01-13T06:45:52.354Z,0.28
2023-01-13T06:48:22.000Z,1.08
2023-01-13T06:50:48.651Z,1.02
2023-01-13T06:53:15.129Z,1.75
2023-01-13T06:55:41.591Z,1.00
2023-01-13T06:58:08.244Z,0.90
2023-01-13T07:00:37.577Z,2.92
2023-01-13T07:03:15.343Z,2.08
2023-01-13T07:05:43.240Z,0.98
2023-01-13T07:08:10.542Z,1.67
2023-01-13T07:10:37.207Z,1.20
2023-01-13T07:13:23.259Z,1.92
2023-01-13T07:16:01.631Z,1.40
2023-01-13T07:18:31.290Z,0.73
2023-01-13T07:21:00.101Z,0.60
2023-01-13T07:23:31.857Z,0.60
2023-01-13T07:25:59.267Z,2.40
2023-01-13T07:28:26.799Z,0.85
2023-01-13T07:30:53.943Z,2.33
2023-01-13T07:33:20.777Z,1.33
2023-01-13T07:35:48.514Z,1.20
2023-01-13T07:38:15.670Z,1.15
2023-01-13T07:40:42.085Z,1.35
2023-01-13T07:43:31.386Z,0.95
2023-01-13T07:46:02.792Z,1.20
2023-01-13T07:48:30.253Z,1.25
2023-01-13T07:50:56.772Z,1.95
2023-01-13T07:53:25.830Z,1.65
2023-01-13T07:55:56.773Z,4.88
2023-01-13T07:58:24.653Z,1.35
2023-01-13T08:00:51.489Z,3.10
2023-01-13T08:03:18.192Z,2.25
2023-01-13T08:05:44.917Z,3.05
2023-01-13T08:08:11.336Z,2.03
2023-01-13T08:10:37.918Z,2.58
2023-01-13T08:13:18.138Z,2.33
2023-01-13T08:15:45.332Z,1.58
2023-01-13T08:18:12.188Z,3.67
2023-01-13T08:20:38.603Z,1.67
2023-01-13T08:23:07.244Z,3.00
2023-01-13T08:25:34.317Z,1.55
2023-01-13T08:28:00.804Z,0.68
2023-01-13T08:30:30.433Z,1.13
2023-01-13T08:32:56.989Z,1.05
2023-01-13T08:35:24.047Z,0.93
2023-01-13T08:37:50.533Z,0.98
2023-01-13T08:40:18.323Z,0.93
2023-01-13T08:42:46.478Z,0.63
2023-01-13T08:45:14.767Z,1.38
2023-01-13T08:47:41.270Z,2.70
2023-01-13T08:50:08.828Z,1.00
2023-01-13T08:52:35.373Z,1.38
2023-01-13T08:55:01.841Z,1.50
2023-01-13T08:57:28.672Z,0.32
2023-01-13T08:59:55.294Z,2.75
2023-01-13T09:02:23.794Z,1.23
2023-01-13T09:04:50.879Z,2.95
2023-01-13T09:07:17.536Z,2.08
2023-01-13T09:09:45.477Z,1.17
2023-01-13T09:12:32.596Z,0.75
2023-01-13T09:14:59.509Z,2.22
2023-01-13T09:17:28.838Z,3.38
2023-01-13T09:19:55.369Z,1.70
2023-01-13T09:22:21.907Z,3.90
2023-01-13T09:24:48.356Z,3.35
2023-01-13T09:27:15.512Z,4.75
2023-01-13T09:29:41.983Z,1.95
2023-01-13T09:32:11.949Z,3.65
2023-01-13T09:34:57.011Z,7.50
2023-01-13T09:37:23.528Z,6.60
2023-01-13T09:39:49.919Z,3.17
2023-01-13T09:42:45.920Z,1.42
2023-01-13T09:45:18.901Z,2.67
2023-01-13T09:48:03.793Z,1.15
2023-01-13T09:50:53.763Z,4.20
2023-01-13T09:53:29.081Z,6.45
2023-01-13T09:55:56.077Z,3.05
2023-01-13T09:58:22.805Z,3.40
2023-01-13T10:00:55.514Z,3.90
2023-01-13T10:03:30.275Z,5.50
2023-01-13T10:06:17.866Z,3.88
2023-01-13T10:08:46.954Z,5.38
2023-01-13T10:11:36.267Z,3.60
2023-01-13T10:14:13.438Z,4.32
2023-01-13T10:17:24.940Z,4.13
2023-01-13T10:20:02.427Z,4.55
2023-01-13T10:22:38.083Z,4.25
2023-01-13T10:25:22.164Z,2.42
2023-01-13T10:27:51.323Z,3.75
2023-01-13T10:30:19.634Z,3.70
2023-01-13T10:33:00.103Z,5.38
2023-01-13T10:35:53.411Z,4.97
2023-01-13T10:38:23.671Z,5.93
2023-01-13T10:40:57.521Z,3.85
2023-01-13T10:43:24.659Z,3.75
2023-01-13T10:46:06.147Z,5.10
2023-01-13T10:48:52.918Z,4.47
2023-01-13T10:51:27.454Z,5.60
2023-01-13T10:53:55.913Z,7.30
2023-01-13T10:56:25.212Z,5.35
2023-01-13T10:58:51.667Z,3.33
2023-01-13T11:01:27.203Z,6.93
2023-01-13T11:03:55.103Z,3.53
2023-01-13T11:06:28.474Z,4.55
2023-01-13T11:08:58.365Z,5.18
2023-01-13T11:11:43.330Z,4.63
2023-01-13T11:14:39.284Z,5.22
2023-01-13T11:17:10.675Z,4.85
2023-01-13T11:19:41.971Z,3.95
2023-01-13T11:22:14.229Z,3.63
2023-01-13T11:24:50.035Z,7.55
2023-01-13T11:27:24.090Z,3.83
2023-01-13T11:32:45.973Z,7.40
2023-01-13T11:35:18.839Z,7.63
2023-01-13T11:37:52.424Z,6.82
2023-01-13T11:40:36.324Z,8.18
2023-01-13T11:43:36.257Z,2.78
2023-01-13T11:46:02.933Z,5.50
2023-01-13T11:48:32.677Z,6.25
2023-01-13T11:51:17.651Z,4.20
2023-01-13T11:54:04.898Z,4.50
2023-01-13T11:56:49.326Z,5.22
2023-01-13T11:59:33.588Z,5.93
2023-01-13T12:02:23.631Z,5.63
2023-01-13T12:05:08.702Z,8.57
2023-01-13T12:07:46.912Z,6.05
2023-01-13T12:10:34.680Z,6.43
2023-01-13T12:13:44.022Z,10.43
2023-01-13T12:16:23.315Z,4.32
2023-01-13T12:19:08.035Z,4.25
2023-01-13T12:22:08.752Z,7.22
2023-01-13T12:24:41.477Z,5.75
2023-01-13T12:27:14.995Z,7.00
2023-01-13T12:29:41.604Z,8.68
2023-01-13T12:32:14.781Z,5.85
2023-01-13T12:34:52.224Z,4.75
2023-01-13T12:37:21.375Z,4.72
2023-01-13T12:40:14.131Z,7.80
2023-01-13T12:43:02.373Z,3.75
2023-01-13T12:45:30.849Z,7.28
2023-01-13T12:47:58.452Z,5.07
2023-01-13T12:50:24.852Z,4.75
2023-01-13T12:52:56.770Z,8.43
2023-01-13T12:55:35.608Z,9.98
2023-01-13T12:58:04.708Z,7.60
2023-01-13T13:00:51.992Z,4.80
2023-01-13T13:03:27.355Z,6.13
2023-01-13T13:06:01.862Z,6.65
2023-01-13T13:08:46.516Z,6.95
2023-01-13T13:11:32.809Z,6.80
2023-01-13T13:14:10.384Z,6.07
2023-01-13T13:16:51.527Z,6.70
2023-01-13T13:19:17.995Z,8.48
2023-01-13T13:22:12.523Z,8.82
2023-01-13T13:25:02.302Z,5.07
2023-01-13T13:27:31.697Z,6.10
2023-01-13T13:30:11.616Z,5.53
2023-01-13T13:33:11.859Z,10.00
2023-01-13T13:35:44.494Z,5.97
2023-01-13T13:38:42.003Z,3.10
2023-01-13T13:41:37.871Z,4.57
2023-01-13T13:44:41.432Z,3.58
2023-01-13T13:47:10.206Z,5.70
2023-01-13T13:49:37.617Z,5.95
2023-01-13T13:52:10.884Z,4.78
2023-01-13T13:54:40.788Z,3.22
2023-01-13T13:57:31.998Z,7.18
2023-01-13T14:00:00.131Z,8.48
2023-01-13T14:02:30.142Z,4.45
2023-01-13T14:05:09.015Z,3.25
2023-01-13T14:07:43.972Z,5.55
2023-01-13T14:10:24.611Z,3.28
2023-01-13T14:12:52.206Z,5.25
2023-01-13T14:15:36.207Z,5.50
2023-01-13T14:18:12.556Z,5.15
2023-01-13T14:20:39.736Z,4.40
2023-01-13T14:23:06.347Z,4.00
2023-01-13T14:25:37.060Z,6.28
2023-01-13T14:28:17.207Z,6.60
2023-01-13T14:30:44.412Z,3.20
2023-01-13T14:33:20.918Z,4.50
2023-01-13T14:36:07.255Z,8.02
2023-01-13T14:38:33.699Z,5.35
2023-01-13T14:41:22.613Z,7.25
2023-01-13T14:43:51.012Z,4.40
2023-01-13T14:46:17.912Z,5.28
2023-01-13T14:48:47.894Z,8.90
2023-01-13T14:51:23.406Z,4.22
2023-01-13T14:53:50.285Z,5.93
2023-01-13T14:56:43.597Z,5.45
2023-01-13T14:59:31.912Z,4.60
2023-01-13T15:01:58.890Z,4.55
2023-01-13T15:04:34.121Z,6.10
2023-01-13T15:07:01.391Z,2.83
2023-01-13T15:09:33.385Z,3.13
2023-01-13T15:12:12.793Z,4.33
2023-01-13T15:14:39.887Z,4.43
2023-01-13T15:17:15.471Z,6.78
2023-01-13T15:19:41.957Z,4.90
2023-01-13T15:22:08.302Z,2.78
2023-01-13T15:24:34.704Z,5.05
2023-01-13T15:27:13.067Z,5.97
2023-01-13T15:29:39.548Z,5.88
2023-01-13T15:32:10.452Z,5.90
2023-01-13T15:34:36.873Z,5.07
2023-01-13T15:37:03.256Z,5.15
2023-01-13T15:39:29.646Z,5.40
2023-01-13T15:42:15.303Z,12.05
2023-01-13T15:45:00.125Z,4.07
2023-01-13T15:47:27.015Z,5.55
2023-01-13T15:49:54.224Z,3.22
2023-01-13T15:52:23.559Z,5.75
2023-01-13T15:54:51.887Z,4.57
2023-01-13T15:57:31.298Z,4.85
2023-01-13T16:00:02.586Z,5.72
2023-01-13T16:02:33.114Z,4.47
2023-01-13T16:04:59.647Z,7.30
2023-01-13T16:07:26.211Z,7.18
2023-01-13T16:09:53.164Z,7.63
2023-01-13T16:12:19.889Z,6.07
2023-01-13T16:14:46.442Z,8.30
2023-01-13T16:17:19.217Z,6.28
2023-01-13T16:19:46.081Z,6.50
2023-01-13T16:22:14.495Z,10.15
2023-01-13T16:24:41.338Z,7.53
2023-01-13T16:27:14.853Z,5.18
2023-01-13T16:29:42.000Z,4.38
2023-01-13T16:32:08.574Z,6.43
2023-01-13T16:34:35.096Z,6.53
2023-01-13T16:37:01.643Z,4.22
2023-01-13T16:39:28.299Z,2.58
2023-01-13T16:41:55.315Z,3.08
2023-01-13T16:44:21.796Z,5.40
2023-01-13T16:46:48.615Z,4.32
2023-01-13T16:49:16.481Z,5.22
2023-01-13T16:51:43.149Z,5.35
2023-01-13T16:54:09.660Z,6.03
2023-01-13T16:56:37.058Z,4.03
2023-01-13T16:59:09.235Z,7.50
2023-01-13T17:01:39.776Z,5.60
2023-01-13T17:04:06.953Z,3.85
2023-01-13T17:06:41.450Z,4.82
2023-01-13T17:09:15.610Z,9.52
2023-01-13T17:11:42.091Z,6.95
2023-01-13T17:14:19.374Z,6.35
2023-01-13T17:16:46.552Z,9.50
2023-01-13T17:19:13.295Z,7.22
2023-01-13T17:21:40.277Z,6.40
2023-01-13T17:24:07.857Z,4.35
2023-01-13T17:26:57.324Z,6.25
2023-01-13T17:29:25.675Z,5.80
2023-01-13T17:31:52.797Z,4.40
2023-01-13T17:34:21.061Z,2.72
2023-01-13T17:36:48.443Z,5.82
2023-01-13T17:39:16.743Z,4.95
2023-01-13T17:41:43.134Z,6.00
2023-01-13T17:44:13.179Z,5.28
2023-01-13T17:46:40.666Z,5.07
2023-01-13T17:49:07.066Z,4.40
2023-01-13T17:51:33.682Z,3.45
2023-01-13T17:54:00.086Z,5.50
2023-01-13T17:56:26.538Z,4.25
2023-01-13T17:58:53.018Z,4.97
2023-01-13T18:01:21.401Z,7.70
2023-01-13T18:03:48.838Z,6.13
2023-01-13T18:06:21.846Z,3.92
2023-01-13T18:11:18.786Z,4.22
2023-01-13T18:13:49.370Z,6.20
2023-01-13T18:16:18.331Z,7.78
2023-01-13T18:18:46.826Z,4.68
2023-01-13T18:21:41.963Z,7.13
2023-01-13T18:24:34.969Z,8.00
2023-01-13T18:27:21.104Z,6.30
2023-01-13T18:29:53.241Z,5.65
2023-01-13T18:32:21.118Z,9.55
2023-01-13T18:34:48.017Z,4.38
2023-01-13T18:37:16.586Z,7.00
2023-01-13T18:39:42.958Z,2.95
2023-01-13T18:42:28.567Z,7.88
2023-01-13T18:44:57.607Z,7.13
2023-01-13T18:47:30.271Z,6.32
2023-01-13T18:49:57.348Z,6.57
2023-01-13T18:52:24.554Z,7.00
2023-01-13T18:54:51.150Z,6.13
2023-01-13T18:57:18.016Z,7.07
2023-01-13T18:59:44.585Z,9.32
2023-01-13T19:02:15.729Z,7.60
2023-01-13T19:04:43.094Z,6.22
2023-01-13T19:07:12.468Z,8.88
2023-01-13T19:09:39.653Z,5.15
2023-01-13T19:12:09.961Z,7.32
2023-01-13T19:14:37.614Z,9.70
2023-01-13T19:17:09.296Z,8.45
2023-01-13T19:19:46.780Z,8.00
2023-01-13T19:22:16.299Z,6.05
2023-01-13T19:24:42.897Z,4.05
2023-01-13T19:27:10.695Z,8.63
2023-01-13T19:29:37.278Z,8.10
2023-01-13T19:32:03.765Z,5.30
2023-01-13T19:34:30.317Z,5.65
2023-01-13T19:36:56.906Z,5.18
2023-01-13T19:39:24.021Z,6.43
2023-01-13T19:42:09.168Z,6.30
2023-01-13T19:44:53.991Z,9.65
2023-01-13T19:47:20.535Z,5.30
2023-01-13T19:49:46.979Z,23.48
2023-01-13T19:52:14.166Z,8.23
2023-01-13T19:54:40.619Z,7.28
2023-01-13T19:57:07.076Z,6.03
2023-01-13T19:59:33.677Z,6.85
2023-01-13T20:02:01.663Z,7.60
2023-01-13T20:04:37.538Z,5.90
2023-01-13T20:07:06.047Z,9.77
2023-01-13T20:09:34.065Z,7.50
2023-01-13T20:12:06.541Z,8.93
2023-01-13T20:14:33.054Z,4.18
2023-01-13T20:17:00.248Z,9.20
2023-01-13T20:19:26.752Z,6.03
2023-01-13T20:21:53.085Z,7.82
2023-01-13T20:24:19.876Z,8.88
2023-01-13T20:26:47.017Z,7.75
2023-01-13T20:29:13.628Z,8.20
2023-01-13T20:31:40.072Z,8.50
2023-01-13T20:34:06.559Z,4.13
2023-01-13T20:36:37.188Z,4.78
2023-01-13T20:39:06.535Z,6.70
2023-01-13T20:41:51.596Z,6.82
2023-01-13T20:44:18.050Z,6.15
2023-01-13T20:46:45.269Z,6.85
2023-01-13T20:49:13.591Z,7.20
2023-01-13T20:51:40.150Z,6.90
2023-01-13T20:54:06.560Z,6.88
2023-01-13T20:56:33.289Z,6.40
2023-01-13T20:58:59.719Z,6.63
2023-01-13T21:01:26.709Z,9.82
2023-01-13T21:03:57.089Z,5.63
2023-01-13T21:06:23.753Z,7.38
2023-01-13T21:08:54.132Z,4.25
2023-01-13T21:11:41.083Z,7.20
2023-01-13T21:14:40.087Z,6.50
2023-01-13T21:17:09.065Z,6.38
2023-01-13T21:19:35.759Z,8.07
2023-01-13T21:22:03.928Z,5.80
2023-01-13T21:24:30.294Z,8.23
2023-01-13T21:27:00.845Z,6.35
2023-01-13T21:29:27.267Z,15.20
2023-01-13T21:31:54.323Z,7.20
2023-01-13T21:34:20.822Z,13.20
2023-01-13T21:36:47.239Z,7.47
2023-01-13T21:39:15.341Z,6.47
2023-01-13T21:42:00.148Z,4.97
2023-01-13T21:44:45.042Z,9.15
2023-01-13T21:47:35.468Z,7.40
2023-01-13T21:50:02.771Z,4.25
2023-01-13T21:52:29.216Z,6.10
2023-01-13T21:55:14.039Z,8.73
2023-01-13T21:57:40.397Z,5.63
2023-01-13T22:00:07.490Z,6.65
2023-01-13T22:02:35.719Z,7.35
2023-01-13T22:05:05.312Z,5.07
2023-01-13T22:07:33.095Z,4.55
2023-01-13T22:09:59.629Z,7.82
2023-01-13T22:12:26.749Z,4.82
2023-01-13T22:14:54.480Z,9.00
2023-01-13T22:17:22.846Z,5.47
2023-01-13T22:19:50.654Z,8.88
2023-01-13T22:22:18.669Z,8.35
2023-01-13T22:24:47.565Z,6.30
2023-01-13T22:27:18.160Z,7.63
2023-01-13T22:29:45.690Z,7.10
2023-01-13T22:32:12.212Z,10.38
2023-01-13T22:34:38.752Z,9.10
2023-01-13T22:37:05.461Z,6.20
2023-01-13T22:39:32.202Z,9.38
2023-01-13T22:41:58.744Z,6.97
2023-01-13T22:44:25.266Z,7.97
2023-01-13T22:46:51.932Z,12.35
2023-01-13T22:49:18.734Z,10.65
2023-01-13T22:51:45.143Z,10.10
2023-01-13T22:54:12.421Z,5.05
2023-01-13T22:56:39.484Z,9.05
2023-01-13T22:59:06.905Z,7.90
2023-01-13T23:01:34.908Z,6.75
2023-01-13T23:04:02.629Z,9.50
2023-01-13T23:06:30.841Z,6.82
2023-01-13T23:08:57.421Z,10.23
2023-01-13T23:11:26.699Z,9.00
2023-01-13T23:13:58.422Z,8.75
2023-01-13T23:16:24.992Z,5.10
2023-01-13T23:18:51.581Z,3.58
2023-01-13T23:21:21.820Z,8.63
2023-01-13T23:23:48.321Z,9.27
2023-01-13T23:26:14.930Z,8.93
2023-01-13T23:28:41.328Z,10.32
2023-01-13T23:31:16.516Z,8.35
2023-01-13T23:33:43.883Z,12.23
2023-01-13T23:36:16.363Z,9.55
2023-01-13T23:38:43.301Z,8.48
2023-01-13T23:41:11.681Z,8.55
2023-01-13T23:43:38.085Z,7.53
2023-01-13T23:46:10.779Z,9.52
2023-01-13T23:48:37.493Z,8.65
2023-01-13T23:51:10.558Z,6.90
2023-01-13T23:56:15.574Z,6.18
2023-01-13T23:58:43.398Z,10.13
